Terminal Aerodrome Forecast
Issued by NWS Cleveland, OH

Home | Current Version | Previous Version | Graphics & Text | Print | Product List | Glossary Off
Versions: 1 2 3 4 5 6 7 8 9 10 11 12 13 14 15 16 17 18 19 20

000
FTUS41 KCLE 232005 AAB
TAFYNG
TAF AMD
KYNG 232005Z 2320/2418 12008KT 6SM BR BKN025 OVC060
      TEMPO 2321/2401 4SM -RA BR BKN015
     FM240100 04008KT 4SM -RA BR BKN010 OVC025
     FM240600 01005KT 1 1/2SM -RA BR OVC005
     FM241600 33006KT 4SM BR OVC008=

USA.gov is the U.S. government's official web portal to all federal, state and local government web resources and services.